sensor_id;sensor_type;location;lat;lon;timestamp;P1;durP1;ratioP1;P2;durP2;ratioP2
19760;SDS011;10039;42.632;23.408;2023-06-05T00:00:39;0.10;;;0.10;;
19760;SDS011;10039;42.632;23.408;2023-06-05T00:03:04;0.20;;;0.20;;
19760;SDS011;10039;42.632;23.408;2023-06-05T00:05:30;0.20;;;0.20;;
19760;SDS011;10039;42.632;23.408;2023-06-05T00:07:56;0.17;;;0.17;;
19760;SDS011;10039;42.632;23.408;2023-06-05T00:10:22;0.20;;;0.20;;
19760;SDS011;10039;42.632;23.408;2023-06-05T00:12:47;0.10;;;0.10;;
19760;SDS011;10039;42.632;23.408;2023-06-05T00:15:13;0.20;;;0.20;;
19760;SDS011;10039;42.632;23.408;2023-06-05T00:17:38;0.10;;;0.10;;
19760;SDS011;10039;42.632;23.408;2023-06-05T00:20:04;0.20;;;0.20;;
19760;SDS011;10039;42.632;23.408;2023-06-05T00:22:31;0.20;;;0.20;;
19760;SDS011;10039;42.632;23.408;2023-06-05T00:24:56;0.20;;;0.20;;
19760;SDS011;10039;42.632;23.408;2023-06-05T00:27:22;0.10;;;0.10;;
19760;SDS011;10039;42.632;23.408;2023-06-05T00:29:48;0.10;;;0.10;;
19760;SDS011;10039;42.632;23.408;2023-06-05T00:32:14;0.10;;;0.10;;
19760;SDS011;10039;42.632;23.408;2023-06-05T00:34:40;0.20;;;0.20;;
19760;SDS011;10039;42.632;23.408;2023-06-05T00:37:05;0.17;;;0.17;;
19760;SDS011;10039;42.632;23.408;2023-06-05T00:39:32;0.10;;;0.10;;
19760;SDS011;10039;42.632;23.408;2023-06-05T00:41:57;0.10;;;0.10;;
19760;SDS011;10039;42.632;23.408;2023-06-05T00:44:23;0.17;;;0.17;;
19760;SDS011;10039;42.632;23.408;2023-06-05T00:46:48;0.20;;;0.20;;
19760;SDS011;10039;42.632;23.408;2023-06-05T00:49:16;0.10;;;0.10;;
19760;SDS011;10039;42.632;23.408;2023-06-05T00:51:43;0.20;;;0.20;;
19760;SDS011;10039;42.632;23.408;2023-06-05T00:54:10;0.20;;;0.20;;
19760;SDS011;10039;42.632;23.408;2023-06-05T00:56:36;0.10;;;0.10;;
19760;SDS011;10039;42.632;23.408;2023-06-05T01:01:48;0.20;;;0.20;;
19760;SDS011;10039;42.632;23.408;2023-06-05T01:04:15;0.10;;;0.10;;
19760;SDS011;10039;42.632;23.408;2023-06-05T01:06:41;0.20;;;0.20;;
19760;SDS011;10039;42.632;23.408;2023-06-05T01:09:07;0.20;;;0.20;;
19760;SDS011;10039;42.632;23.408;2023-06-05T01:14:23;0.20;;;0.20;;
19760;SDS011;10039;42.632;23.408;2023-06-05T01:16:53;0.20;;;0.20;;
19760;SDS011;10039;42.632;23.408;2023-06-05T01:19:22;0.20;;;0.20;;
19760;SDS011;10039;42.632;23.408;2023-06-05T01:21:54;0.20;;;0.20;;
19760;SDS011;10039;42.632;23.408;2023-06-05T01:24:20;0.20;;;0.20;;
19760;SDS011;10039;42.632;23.408;2023-06-05T01:30:53;0.10;;;0.10;;
19760;SDS011;10039;42.632;23.408;2023-06-05T01:35:19;0.13;;;0.13;;
19760;SDS011;10039;42.632;23.408;2023-06-05T01:37:52;0.20;;;0.20;;
19760;SDS011;10039;42.632;23.408;2023-06-05T01:40:20;0.10;;;0.10;;
19760;SDS011;10039;42.632;23.408;2023-06-05T01:42:48;0.10;;;0.10;;
19760;SDS011;10039;42.632;23.408;2023-06-05T01:45:15;0.10;;;0.10;;
19760;SDS011;10039;42.632;23.408;2023-06-05T01:47:42;0.20;;;0.20;;
19760;SDS011;10039;42.632;23.408;2023-06-05T01:50:09;0.10;;;0.10;;
19760;SDS011;10039;42.632;23.408;2023-06-05T01:52:38;0.10;;;0.10;;
19760;SDS011;10039;42.632;23.408;2023-06-05T01:55:05;0.20;;;0.20;;
19760;SDS011;10039;42.632;23.408;2023-06-05T01:57:31;0.10;;;0.10;;
19760;SDS011;10039;42.632;23.408;2023-06-05T01:59:59;0.10;;;0.10;;
19760;SDS011;10039;42.632;23.408;2023-06-05T02:02:29;0.20;;;0.20;;
19760;SDS011;10039;42.632;23.408;2023-06-05T02:04:55;0.20;;;0.20;;
19760;SDS011;10039;42.632;23.408;2023-06-05T02:07:24;0.20;;;0.20;;
19760;SDS011;10039;42.632;23.408;2023-06-05T02:09:49;0.10;;;0.10;;
19760;SDS011;10039;42.632;23.408;2023-06-05T02:12:15;0.20;;;0.20;;
19760;SDS011;10039;42.632;23.408;2023-06-05T02:14:41;0.20;;;0.20;;
19760;SDS011;10039;42.632;23.408;2023-06-05T02:17:09;0.17;;;0.17;;
19760;SDS011;10039;42.632;23.408;2023-06-05T02:19:39;0.20;;;0.20;;
19760;SDS011;10039;42.632;23.408;2023-06-05T02:22:05;0.10;;;0.10;;
19760;SDS011;10039;42.632;23.408;2023-06-05T02:24:31;0.15;;;0.15;;
19760;SDS011;10039;42.632;23.408;2023-06-05T02:26:56;0.20;;;0.20;;
19760;SDS011;10039;42.632;23.408;2023-06-05T02:29:22;0.17;;;0.17;;
19760;SDS011;10039;42.632;23.408;2023-06-05T02:31:48;0.15;;;0.15;;
19760;SDS011;10039;42.632;23.408;2023-06-05T02:34:14;0.20;;;0.20;;
19760;SDS011;10039;42.632;23.408;2023-06-05T02:36:42;0.10;;;0.10;;
19760;SDS011;10039;42.632;23.408;2023-06-05T02:39:10;0.20;;;0.20;;
19760;SDS011;10039;42.632;23.408;2023-06-05T02:41:36;0.20;;;0.20;;
19760;SDS011;10039;42.632;23.408;2023-06-05T02:44:02;0.20;;;0.20;;
19760;SDS011;10039;42.632;23.408;2023-06-05T02:46:27;0.17;;;0.17;;
19760;SDS011;10039;42.632;23.408;2023-06-05T02:48:53;0.20;;;0.20;;
19760;SDS011;10039;42.632;23.408;2023-06-05T02:51:18;0.20;;;0.20;;
19760;SDS011;10039;42.632;23.408;2023-06-05T02:53:43;0.10;;;0.10;;
19760;SDS011;10039;42.632;23.408;2023-06-05T02:56:09;0.20;;;0.20;;
19760;SDS011;10039;42.632;23.408;2023-06-05T02:58:35;0.20;;;0.20;;
19760;SDS011;10039;42.632;23.408;2023-06-05T03:01:01;0.10;;;0.10;;
19760;SDS011;10039;42.632;23.408;2023-06-05T03:03:27;0.20;;;0.20;;
19760;SDS011;10039;42.632;23.408;2023-06-05T03:05:57;0.20;;;0.20;;
19760;SDS011;10039;42.632;23.408;2023-06-05T03:08:33;0.15;;;0.15;;
19760;SDS011;10039;42.632;23.408;2023-06-05T03:11:00;0.20;;;0.20;;
19760;SDS011;10039;42.632;23.408;2023-06-05T03:13:26;0.10;;;0.10;;
19760;SDS011;10039;42.632;23.408;2023-06-05T03:15:51;0.20;;;0.20;;
19760;SDS011;10039;42.632;23.408;2023-06-05T03:18:21;0.10;;;0.10;;
19760;SDS011;10039;42.632;23.408;2023-06-05T03:20:51;0.20;;;0.20;;
19760;SDS011;10039;42.632;23.408;2023-06-05T03:23:20;0.30;;;0.30;;
19760;SDS011;10039;42.632;23.408;2023-06-05T03:25:47;0.20;;;0.20;;
19760;SDS011;10039;42.632;23.408;2023-06-05T03:28:12;0.20;;;0.20;;
19760;SDS011;10039;42.632;23.408;2023-06-05T03:30:38;0.20;;;0.20;;
19760;SDS011;10039;42.632;23.408;2023-06-05T03:33:04;0.20;;;0.20;;
19760;SDS011;10039;42.632;23.408;2023-06-05T03:35:31;0.20;;;0.20;;
19760;SDS011;10039;42.632;23.408;2023-06-05T03:37:57;0.20;;;0.20;;
19760;SDS011;10039;42.632;23.408;2023-06-05T03:40:23;0.20;;;0.20;;
19760;SDS011;10039;42.632;23.408;2023-06-05T03:42:48;0.20;;;0.20;;
19760;SDS011;10039;42.632;23.408;2023-06-05T03:45:14;0.10;;;0.10;;
19760;SDS011;10039;42.632;23.408;2023-06-05T03:47:40;0.20;;;0.20;;
19760;SDS011;10039;42.632;23.408;2023-06-05T03:50:06;0.20;;;0.20;;
19760;SDS011;10039;42.632;23.408;2023-06-05T03:52:32;0.20;;;0.20;;
19760;SDS011;10039;42.632;23.408;2023-06-05T03:54:57;0.10;;;0.10;;
19760;SDS011;10039;42.632;23.408;2023-06-05T03:57:25;0.20;;;0.20;;
19760;SDS011;10039;42.632;23.408;2023-06-05T03:59:50;0.30;;;0.30;;
19760;SDS011;10039;42.632;23.408;2023-06-05T04:02:16;0.20;;;0.20;;
19760;SDS011;10039;42.632;23.408;2023-06-05T04:04:41;0.20;;;0.20;;
19760;SDS011;10039;42.632;23.408;2023-06-05T04:07:07;0.10;;;0.10;;
19760;SDS011;10039;42.632;23.408;2023-06-05T04:09:32;0.15;;;0.15;;
19760;SDS011;10039;42.632;23.408;2023-06-05T04:11:57;0.20;;;0.20;;
19760;SDS011;10039;42.632;23.408;2023-06-05T04:14:23;0.22;;;0.22;;
19760;SDS011;10039;42.632;23.408;2023-06-05T04:16:49;0.10;;;0.10;;
19760;SDS011;10039;42.632;23.408;2023-06-05T04:19:14;0.30;;;0.30;;
19760;SDS011;10039;42.632;23.408;2023-06-05T04:21:40;0.20;;;0.20;;
19760;SDS011;10039;42.632;23.408;2023-06-05T04:24:06;0.10;;;0.10;;
19760;SDS011;10039;42.632;23.408;2023-06-05T04:26:34;0.20;;;0.20;;
19760;SDS011;10039;42.632;23.408;2023-06-05T04:29:03;0.13;;;0.13;;
19760;SDS011;10039;42.632;23.408;2023-06-05T04:31:34;0.15;;;0.15;;
19760;SDS011;10039;42.632;23.408;2023-06-05T04:33:59;0.20;;;0.20;;
19760;SDS011;10039;42.632;23.408;2023-06-05T04:36:27;0.10;;;0.10;;
19760;SDS011;10039;42.632;23.408;2023-06-05T04:38:53;0.20;;;0.20;;
19760;SDS011;10039;42.632;23.408;2023-06-05T04:41:19;0.10;;;0.10;;
19760;SDS011;10039;42.632;23.408;2023-06-05T04:43:46;0.20;;;0.20;;
19760;SDS011;10039;42.632;23.408;2023-06-05T04:46:12;0.20;;;0.20;;
19760;SDS011;10039;42.632;23.408;2023-06-05T04:48:37;0.20;;;0.20;;
19760;SDS011;10039;42.632;23.408;2023-06-05T04:51:02;0.20;;;0.20;;
19760;SDS011;10039;42.632;23.408;2023-06-05T04:53:28;0.10;;;0.10;;
19760;SDS011;10039;42.632;23.408;2023-06-05T04:55:56;0.20;;;0.20;;
19760;SDS011;10039;42.632;23.408;2023-06-05T04:58:25;0.20;;;0.20;;
19760;SDS011;10039;42.632;23.408;2023-06-05T05:00:51;0.20;;;0.20;;
19760;SDS011;10039;42.632;23.408;2023-06-05T05:03:16;0.20;;;0.20;;
19760;SDS011;10039;42.632;23.408;2023-06-05T05:05:42;0.10;;;0.10;;
19760;SDS011;10039;42.632;23.408;2023-06-05T05:08:08;0.10;;;0.10;;
19760;SDS011;10039;42.632;23.408;2023-06-05T05:10:33;0.20;;;0.20;;
19760;SDS011;10039;42.632;23.408;2023-06-05T05:12:58;0.10;;;0.10;;
19760;SDS011;10039;42.632;23.408;2023-06-05T05:15:27;0.17;;;0.17;;
19760;SDS011;10039;42.632;23.408;2023-06-05T05:17:54;0.20;;;0.20;;
19760;SDS011;10039;42.632;23.408;2023-06-05T05:20:21;0.10;;;0.10;;
19760;SDS011;10039;42.632;23.408;2023-06-05T05:22:46;0.20;;;0.20;;
19760;SDS011;10039;42.632;23.408;2023-06-05T05:25:12;0.10;;;0.10;;
19760;SDS011;10039;42.632;23.408;2023-06-05T05:27:40;0.20;;;0.20;;
19760;SDS011;10039;42.632;23.408;2023-06-05T05:30:07;0.17;;;0.17;;
19760;SDS011;10039;42.632;23.408;2023-06-05T05:32:32;0.20;;;0.20;;
19760;SDS011;10039;42.632;23.408;2023-06-05T05:34:58;0.17;;;0.17;;
19760;SDS011;10039;42.632;23.408;2023-06-05T05:37:23;0.20;;;0.20;;
19760;SDS011;10039;42.632;23.408;2023-06-05T05:39:50;0.10;;;0.10;;
19760;SDS011;10039;42.632;23.408;2023-06-05T05:42:16;0.20;;;0.20;;
19760;SDS011;10039;42.632;23.408;2023-06-05T05:44:42;0.10;;;0.10;;
19760;SDS011;10039;42.632;23.408;2023-06-05T05:47:09;0.10;;;0.10;;
19760;SDS011;10039;42.632;23.408;2023-06-05T05:49:34;0.10;;;0.10;;
19760;SDS011;10039;42.632;23.408;2023-06-05T05:52:00;0.20;;;0.20;;
19760;SDS011;10039;42.632;23.408;2023-06-05T05:54:25;0.10;;;0.10;;
19760;SDS011;10039;42.632;23.408;2023-06-05T05:56:54;0.10;;;0.10;;
19760;SDS011;10039;42.632;23.408;2023-06-05T05:59:20;0.10;;;0.10;;
19760;SDS011;10039;42.632;23.408;2023-06-05T06:01:46;0.10;;;0.10;;
19760;SDS011;10039;42.632;23.408;2023-06-05T06:04:13;0.10;;;0.10;;
19760;SDS011;10039;42.632;23.408;2023-06-05T06:06:39;0.20;;;0.20;;
19760;SDS011;10039;42.632;23.408;2023-06-05T06:09:05;0.10;;;0.10;;
19760;SDS011;10039;42.632;23.408;2023-06-05T06:11:33;0.15;;;0.15;;
19760;SDS011;10039;42.632;23.408;2023-06-05T06:14:01;0.10;;;0.10;;
19760;SDS011;10039;42.632;23.408;2023-06-05T06:16:26;0.10;;;0.10;;
19760;SDS011;10039;42.632;23.408;2023-06-05T06:18:52;0.10;;;0.10;;
19760;SDS011;10039;42.632;23.408;2023-06-05T06:21:17;0.03;;;0.03;;
19760;SDS011;10039;42.632;23.408;2023-06-05T06:23:43;0.10;;;0.10;;
19760;SDS011;10039;42.632;23.408;2023-06-05T06:26:10;0.00;;;0.00;;
19760;SDS011;10039;42.632;23.408;2023-06-05T06:28:36;0.10;;;0.10;;
19760;SDS011;10039;42.632;23.408;2023-06-05T06:31:02;0.10;;;0.10;;
19760;SDS011;10039;42.632;23.408;2023-06-05T06:33:28;0.10;;;0.10;;
19760;SDS011;10039;42.632;23.408;2023-06-05T06:35:54;0.10;;;0.10;;
19760;SDS011;10039;42.632;23.408;2023-06-05T06:38:20;0.10;;;0.10;;
19760;SDS011;10039;42.632;23.408;2023-06-05T06:40:45;0.10;;;0.10;;
19760;SDS011;10039;42.632;23.408;2023-06-05T06:43:11;0.10;;;0.10;;
19760;SDS011;10039;42.632;23.408;2023-06-05T06:45:37;0.10;;;0.10;;
19760;SDS011;10039;42.632;23.408;2023-06-05T06:48:02;0.05;;;0.05;;
19760;SDS011;10039;42.632;23.408;2023-06-05T06:50:28;0.10;;;0.10;;
19760;SDS011;10039;42.632;23.408;2023-06-05T06:52:53;0.10;;;0.10;;
19760;SDS011;10039;42.632;23.408;2023-06-05T06:55:19;0.00;;;0.00;;
19760;SDS011;10039;42.632;23.408;2023-06-05T06:57:44;0.10;;;0.10;;
19760;SDS011;10039;42.632;23.408;2023-06-05T07:00:10;0.10;;;0.10;;
19760;SDS011;10039;42.632;23.408;2023-06-05T07:02:37;0.10;;;0.10;;
19760;SDS011;10039;42.632;23.408;2023-06-05T07:05:11;0.00;;;0.00;;
19760;SDS011;10039;42.632;23.408;2023-06-05T07:07:37;0.10;;;0.10;;
19760;SDS011;10039;42.632;23.408;2023-06-05T07:10:02;0.10;;;0.10;;
19760;SDS011;10039;42.632;23.408;2023-06-05T07:12:28;0.10;;;0.10;;
19760;SDS011;10039;42.632;23.408;2023-06-05T07:14:53;0.10;;;0.10;;
19760;SDS011;10039;42.632;23.408;2023-06-05T07:17:19;0.10;;;0.10;;
19760;SDS011;10039;42.632;23.408;2023-06-05T07:19:46;0.00;;;0.00;;
19760;SDS011;10039;42.632;23.408;2023-06-05T07:22:11;0.10;;;0.10;;
19760;SDS011;10039;42.632;23.408;2023-06-05T07:24:37;0.10;;;0.10;;
19760;SDS011;10039;42.632;23.408;2023-06-05T07:27:03;0.10;;;0.10;;
19760;SDS011;10039;42.632;23.408;2023-06-05T07:29:29;0.10;;;0.10;;
19760;SDS011;10039;42.632;23.408;2023-06-05T07:31:56;0.10;;;0.10;;
19760;SDS011;10039;42.632;23.408;2023-06-05T07:34:23;0.10;;;0.10;;
19760;SDS011;10039;42.632;23.408;2023-06-05T07:36:50;0.10;;;0.10;;
19760;SDS011;10039;42.632;23.408;2023-06-05T07:39:17;0.10;;;0.10;;
19760;SDS011;10039;42.632;23.408;2023-06-05T07:41:43;0.00;;;0.00;;
19760;SDS011;10039;42.632;23.408;2023-06-05T07:44:10;0.10;;;0.10;;
19760;SDS011;10039;42.632;23.408;2023-06-05T07:46:37;0.00;;;0.00;;
19760;SDS011;10039;42.632;23.408;2023-06-05T07:49:04;0.10;;;0.10;;
19760;SDS011;10039;42.632;23.408;2023-06-05T07:51:30;0.08;;;0.08;;
19760;SDS011;10039;42.632;23.408;2023-06-05T07:54:00;0.10;;;0.10;;
19760;SDS011;10039;42.632;23.408;2023-06-05T07:56:27;0.10;;;0.10;;
19760;SDS011;10039;42.632;23.408;2023-06-05T07:58:53;0.10;;;0.10;;
19760;SDS011;10039;42.632;23.408;2023-06-05T08:01:18;0.10;;;0.10;;
19760;SDS011;10039;42.632;23.408;2023-06-05T08:03:45;0.05;;;0.05;;
19760;SDS011;10039;42.632;23.408;2023-06-05T08:06:11;0.10;;;0.10;;
19760;SDS011;10039;42.632;23.408;2023-06-05T08:08:36;0.10;;;0.10;;
19760;SDS011;10039;42.632;23.408;2023-06-05T08:11:02;0.00;;;0.00;;
19760;SDS011;10039;42.632;23.408;2023-06-05T08:13:29;0.00;;;0.00;;
19760;SDS011;10039;42.632;23.408;2023-06-05T08:15:55;0.00;;;0.00;;
19760;SDS011;10039;42.632;23.408;2023-06-05T08:18:20;0.00;;;0.00;;
19760;SDS011;10039;42.632;23.408;2023-06-05T08:20:46;0.00;;;0.00;;
19760;SDS011;10039;42.632;23.408;2023-06-05T08:23:12;0.10;;;0.10;;
19760;SDS011;10039;42.632;23.408;2023-06-05T08:25:39;0.10;;;0.10;;
19760;SDS011;10039;42.632;23.408;2023-06-05T08:28:04;0.00;;;0.00;;
19760;SDS011;10039;42.632;23.408;2023-06-05T08:30:30;0.00;;;0.00;;
19760;SDS011;10039;42.632;23.408;2023-06-05T08:32:55;0.00;;;0.00;;
19760;SDS011;10039;42.632;23.408;2023-06-05T08:35:20;0.00;;;0.00;;
19760;SDS011;10039;42.632;23.408;2023-06-05T08:37:46;0.00;;;0.00;;
19760;SDS011;10039;42.632;23.408;2023-06-05T08:40:12;0.00;;;0.00;;
19760;SDS011;10039;42.632;23.408;2023-06-05T08:42:40;0.00;;;0.00;;
19760;SDS011;10039;42.632;23.408;2023-06-05T08:45:06;0.00;;;0.00;;
19760;SDS011;10039;42.632;23.408;2023-06-05T08:47:34;0.00;;;0.00;;
19760;SDS011;10039;42.632;23.408;2023-06-05T08:50:03;0.00;;;0.00;;
19760;SDS011;10039;42.632;23.408;2023-06-05T08:52:33;0.00;;;0.00;;
19760;SDS011;10039;42.632;23.408;2023-06-05T08:55:00;0.10;;;0.10;;
19760;SDS011;10039;42.632;23.408;2023-06-05T08:57:29;0.08;;;0.08;;
19760;SDS011;10039;42.632;23.408;2023-06-05T08:59:55;0.00;;;0.00;;
19760;SDS011;10039;42.632;23.408;2023-06-05T09:02:21;0.05;;;0.05;;
19760;SDS011;10039;42.632;23.408;2023-06-05T09:04:46;0.08;;;0.08;;
19760;SDS011;10039;42.632;23.408;2023-06-05T09:07:14;0.00;;;0.00;;
19760;SDS011;10039;42.632;23.408;2023-06-05T09:09:42;0.10;;;0.10;;
19760;SDS011;10039;42.632;23.408;2023-06-05T09:12:08;0.00;;;0.00;;
19760;SDS011;10039;42.632;23.408;2023-06-05T09:14:33;0.00;;;0.00;;
19760;SDS011;10039;42.632;23.408;2023-06-05T09:17:00;0.00;;;0.00;;
19760;SDS011;10039;42.632;23.408;2023-06-05T09:19:38;0.00;;;0.00;;
19760;SDS011;10039;42.632;23.408;2023-06-05T09:22:08;0.10;;;0.10;;
19760;SDS011;10039;42.632;23.408;2023-06-05T09:24:35;0.10;;;0.10;;
19760;SDS011;10039;42.632;23.408;2023-06-05T09:27:08;0.00;;;0.00;;
19760;SDS011;10039;42.632;23.408;2023-06-05T09:29:37;0.00;;;0.00;;
19760;SDS011;10039;42.632;23.408;2023-06-05T09:34:39;0.00;;;0.00;;
19760;SDS011;10039;42.632;23.408;2023-06-05T09:37:08;0.10;;;0.10;;
19760;SDS011;10039;42.632;23.408;2023-06-05T09:39:36;0.00;;;0.00;;
19760;SDS011;10039;42.632;23.408;2023-06-05T09:42:03;0.03;;;0.03;;
19760;SDS011;10039;42.632;23.408;2023-06-05T09:44:31;0.00;;;0.00;;
19760;SDS011;10039;42.632;23.408;2023-06-05T09:47:05;0.00;;;0.00;;
19760;SDS011;10039;42.632;23.408;2023-06-05T09:52:12;0.00;;;0.00;;
19760;SDS011;10039;42.632;23.408;2023-06-05T09:54:39;0.00;;;0.00;;
19760;SDS011;10039;42.632;23.408;2023-06-05T09:57:07;0.10;;;0.10;;
19760;SDS011;10039;42.632;23.408;2023-06-05T10:02:07;0.10;;;0.10;;
19760;SDS011;10039;42.632;23.408;2023-06-05T10:04:42;0.10;;;0.10;;
19760;SDS011;10039;42.632;23.408;2023-06-05T10:07:11;0.10;;;0.10;;
19760;SDS011;10039;42.632;23.408;2023-06-05T10:09:38;0.10;;;0.10;;
19760;SDS011;10039;42.632;23.408;2023-06-05T10:12:07;0.08;;;0.08;;
19760;SDS011;10039;42.632;23.408;2023-06-05T10:14:36;0.10;;;0.10;;
19760;SDS011;10039;42.632;23.408;2023-06-05T10:17:06;0.00;;;0.00;;
19760;SDS011;10039;42.632;23.408;2023-06-05T10:19:32;0.00;;;0.00;;
19760;SDS011;10039;42.632;23.408;2023-06-05T10:21:57;0.00;;;0.00;;
19760;SDS011;10039;42.632;23.408;2023-06-05T10:40:14;0.00;;;0.00;;
19760;SDS011;10039;42.632;23.408;2023-06-05T10:42:42;0.00;;;0.00;;
19760;SDS011;10039;42.632;23.408;2023-06-05T10:45:07;0.00;;;0.00;;
19760;SDS011;10039;42.632;23.408;2023-06-05T10:52:49;0.05;;;0.05;;
19760;SDS011;10039;42.632;23.408;2023-06-05T10:55:15;0.00;;;0.00;;
19760;SDS011;10039;42.632;23.408;2023-06-05T11:00:25;0.00;;;0.00;;
19760;SDS011;10039;42.632;23.408;2023-06-05T11:02:51;0.03;;;0.03;;
19760;SDS011;10039;42.632;23.408;2023-06-05T11:05:18;0.00;;;0.00;;
19760;SDS011;10039;42.632;23.408;2023-06-05T11:07:44;0.10;;;0.10;;
19760;SDS011;10039;42.632;23.408;2023-06-05T11:10:14;0.00;;;0.00;;
19760;SDS011;10039;42.632;23.408;2023-06-05T11:15:37;0.00;;;0.00;;
19760;SDS011;10039;42.632;23.408;2023-06-05T11:18:27;0.00;;;0.00;;
19760;SDS011;10039;42.632;23.408;2023-06-05T11:20:54;0.00;;;0.00;;
19760;SDS011;10039;42.632;23.408;2023-06-05T11:23:20;0.00;;;0.00;;
19760;SDS011;10039;42.632;23.408;2023-06-05T11:25:58;0.05;;;0.05;;
19760;SDS011;10039;42.632;23.408;2023-06-05T11:29:02;0.00;;;0.00;;
19760;SDS011;10039;42.632;23.408;2023-06-05T11:31:35;0.00;;;0.00;;
19760;SDS011;10039;42.632;23.408;2023-06-05T11:34:01;0.00;;;0.00;;
19760;SDS011;10039;42.632;23.408;2023-06-05T11:36:26;0.00;;;0.00;;
19760;SDS011;10039;42.632;23.408;2023-06-05T11:38:53;0.00;;;0.00;;
19760;SDS011;10039;42.632;23.408;2023-06-05T11:41:22;0.00;;;0.00;;
19760;SDS011;10039;42.632;23.408;2023-06-05T11:43:49;0.00;;;0.00;;
19760;SDS011;10039;42.632;23.408;2023-06-05T11:46:15;0.10;;;0.10;;
19760;SDS011;10039;42.632;23.408;2023-06-05T11:48:44;0.00;;;0.00;;
19760;SDS011;10039;42.632;23.408;2023-06-05T11:51:10;0.10;;;0.10;;
19760;SDS011;10039;42.632;23.408;2023-06-05T11:53:42;0.10;;;0.10;;
19760;SDS011;10039;42.632;23.408;2023-06-05T11:56:12;0.00;;;0.00;;
19760;SDS011;10039;42.632;23.408;2023-06-05T11:58:41;0.00;;;0.00;;
19760;SDS011;10039;42.632;23.408;2023-06-05T12:01:16;0.00;;;0.00;;
19760;SDS011;10039;42.632;23.408;2023-06-05T12:03:47;0.10;;;0.10;;
19760;SDS011;10039;42.632;23.408;2023-06-05T12:06:13;0.00;;;0.00;;
19760;SDS011;10039;42.632;23.408;2023-06-05T12:08:41;0.00;;;0.00;;
19760;SDS011;10039;42.632;23.408;2023-06-05T12:11:23;0.00;;;0.00;;
19760;SDS011;10039;42.632;23.408;2023-06-05T12:13:51;0.00;;;0.00;;
19760;SDS011;10039;42.632;23.408;2023-06-05T12:16:19;0.00;;;0.00;;
19760;SDS011;10039;42.632;23.408;2023-06-05T12:18:54;0.00;;;0.00;;
19760;SDS011;10039;42.632;23.408;2023-06-05T12:21:23;0.00;;;0.00;;
19760;SDS011;10039;42.632;23.408;2023-06-05T12:23:49;0.00;;;0.00;;
19760;SDS011;10039;42.632;23.408;2023-06-05T12:26:16;0.00;;;0.00;;
19760;SDS011;10039;42.632;23.408;2023-06-05T12:28:42;0.00;;;0.00;;
19760;SDS011;10039;42.632;23.408;2023-06-05T12:31:09;0.05;;;0.05;;
19760;SDS011;10039;42.632;23.408;2023-06-05T12:33:54;0.00;;;0.00;;
19760;SDS011;10039;42.632;23.408;2023-06-05T12:36:19;0.00;;;0.00;;
19760;SDS011;10039;42.632;23.408;2023-06-05T12:38:45;0.00;;;0.00;;
19760;SDS011;10039;42.632;23.408;2023-06-05T12:41:11;0.00;;;0.00;;
19760;SDS011;10039;42.632;23.408;2023-06-05T12:43:36;0.00;;;0.00;;
19760;SDS011;10039;42.632;23.408;2023-06-05T12:46:02;0.00;;;0.00;;
19760;SDS011;10039;42.632;23.408;2023-06-05T12:48:28;0.00;;;0.00;;
19760;SDS011;10039;42.632;23.408;2023-06-05T12:50:54;0.00;;;0.00;;
19760;SDS011;10039;42.632;23.408;2023-06-05T12:53:21;0.00;;;0.00;;
19760;SDS011;10039;42.632;23.408;2023-06-05T12:55:46;0.00;;;0.00;;
19760;SDS011;10039;42.632;23.408;2023-06-05T12:58:12;0.00;;;0.00;;
19760;SDS011;10039;42.632;23.408;2023-06-05T13:00:38;0.00;;;0.00;;
19760;SDS011;10039;42.632;23.408;2023-06-05T13:03:03;0.00;;;0.00;;
19760;SDS011;10039;42.632;23.408;2023-06-05T13:05:29;0.00;;;0.00;;
19760;SDS011;10039;42.632;23.408;2023-06-05T13:07:56;0.00;;;0.00;;
19760;SDS011;10039;42.632;23.408;2023-06-05T13:10:22;0.00;;;0.00;;
19760;SDS011;10039;42.632;23.408;2023-06-05T13:12:48;0.00;;;0.00;;
19760;SDS011;10039;42.632;23.408;2023-06-05T13:15:16;0.00;;;0.00;;
19760;SDS011;10039;42.632;23.408;2023-06-05T13:17:42;0.00;;;0.00;;
19760;SDS011;10039;42.632;23.408;2023-06-05T13:20:08;0.00;;;0.00;;
19760;SDS011;10039;42.632;23.408;2023-06-05T13:22:38;0.00;;;0.00;;
19760;SDS011;10039;42.632;23.408;2023-06-05T13:25:07;0.00;;;0.00;;
19760;SDS011;10039;42.632;23.408;2023-06-05T13:27:33;0.00;;;0.00;;
19760;SDS011;10039;42.632;23.408;2023-06-05T13:29:59;0.00;;;0.00;;
19760;SDS011;10039;42.632;23.408;2023-06-05T13:32:25;0.00;;;0.00;;
19760;SDS011;10039;42.632;23.408;2023-06-05T13:34:50;0.03;;;0.03;;
19760;SDS011;10039;42.632;23.408;2023-06-05T13:37:16;0.00;;;0.00;;
19760;SDS011;10039;42.632;23.408;2023-06-05T13:39:41;0.00;;;0.00;;
19760;SDS011;10039;42.632;23.408;2023-06-05T13:42:07;0.00;;;0.00;;
19760;SDS011;10039;42.632;23.408;2023-06-05T13:44:33;0.00;;;0.00;;
19760;SDS011;10039;42.632;23.408;2023-06-05T13:46:59;0.00;;;0.00;;
19760;SDS011;10039;42.632;23.408;2023-06-05T13:49:28;0.00;;;0.00;;
19760;SDS011;10039;42.632;23.408;2023-06-05T13:51:53;0.00;;;0.00;;
19760;SDS011;10039;42.632;23.408;2023-06-05T13:54:19;0.00;;;0.00;;
19760;SDS011;10039;42.632;23.408;2023-06-05T13:56:44;0.00;;;0.00;;
19760;SDS011;10039;42.632;23.408;2023-06-05T13:59:10;0.08;;;0.08;;
19760;SDS011;10039;42.632;23.408;2023-06-05T14:01:35;0.00;;;0.00;;
19760;SDS011;10039;42.632;23.408;2023-06-05T14:04:01;0.00;;;0.00;;
19760;SDS011;10039;42.632;23.408;2023-06-05T14:06:26;0.00;;;0.00;;
19760;SDS011;10039;42.632;23.408;2023-06-05T14:08:51;0.00;;;0.00;;
19760;SDS011;10039;42.632;23.408;2023-06-05T14:11:17;0.00;;;0.00;;
19760;SDS011;10039;42.632;23.408;2023-06-05T14:13:44;0.00;;;0.00;;
19760;SDS011;10039;42.632;23.408;2023-06-05T14:16:09;0.05;;;0.05;;
19760;SDS011;10039;42.632;23.408;2023-06-05T14:18:36;0.00;;;0.00;;
19760;SDS011;10039;42.632;23.408;2023-06-05T14:21:02;0.00;;;0.00;;
19760;SDS011;10039;42.632;23.408;2023-06-05T14:23:28;0.00;;;0.00;;
19760;SDS011;10039;42.632;23.408;2023-06-05T14:25:53;0.03;;;0.03;;
19760;SDS011;10039;42.632;23.408;2023-06-05T14:28:19;0.00;;;0.00;;
19760;SDS011;10039;42.632;23.408;2023-06-05T14:30:45;0.00;;;0.00;;
19760;SDS011;10039;42.632;23.408;2023-06-05T14:33:11;0.00;;;0.00;;
19760;SDS011;10039;42.632;23.408;2023-06-05T14:35:37;0.10;;;0.10;;
19760;SDS011;10039;42.632;23.408;2023-06-05T14:38:02;0.00;;;0.00;;
19760;SDS011;10039;42.632;23.408;2023-06-05T14:40:27;0.00;;;0.00;;
19760;SDS011;10039;42.632;23.408;2023-06-05T14:42:53;0.00;;;0.00;;
19760;SDS011;10039;42.632;23.408;2023-06-05T14:45:18;0.00;;;0.00;;
19760;SDS011;10039;42.632;23.408;2023-06-05T14:47:44;0.00;;;0.00;;
19760;SDS011;10039;42.632;23.408;2023-06-05T14:50:10;0.00;;;0.00;;
19760;SDS011;10039;42.632;23.408;2023-06-05T14:52:35;0.00;;;0.00;;
19760;SDS011;10039;42.632;23.408;2023-06-05T14:55:01;0.00;;;0.00;;
19760;SDS011;10039;42.632;23.408;2023-06-05T14:57:27;0.00;;;0.00;;
19760;SDS011;10039;42.632;23.408;2023-06-05T14:59:53;0.08;;;0.08;;
19760;SDS011;10039;42.632;23.408;2023-06-05T15:02:18;0.08;;;0.08;;
19760;SDS011;10039;42.632;23.408;2023-06-05T15:04:48;0.00;;;0.00;;
19760;SDS011;10039;42.632;23.408;2023-06-05T15:07:17;0.00;;;0.00;;
19760;SDS011;10039;42.632;23.408;2023-06-05T15:09:45;0.00;;;0.00;;
19760;SDS011;10039;42.632;23.408;2023-06-05T15:12:11;0.00;;;0.00;;
19760;SDS011;10039;42.632;23.408;2023-06-05T15:14:36;0.00;;;0.00;;
19760;SDS011;10039;42.632;23.408;2023-06-05T15:17:02;0.00;;;0.00;;